sensor_id;sensor_type;location;lat;lon;timestamp;pressure;altitude;pressure_sealevel;temperature;humidity
13013;BME280;22580;57.670;12.006;2023-02-03T00:01:09;101080.94;;;6.58;87.60
13013;BME280;22580;57.670;12.006;2023-02-03T00:03:36;101123.81;;;6.86;87.40
13013;BME280;22580;57.670;12.006;2023-02-03T00:06:03;101085.50;;;6.73;87.14
13013;BME280;22580;57.670;12.006;2023-02-03T00:08:31;100973.81;;;6.06;88.05
13013;BME280;22580;57.670;12.006;2023-02-03T00:10:58;101130.38;;;7.14;87.93
13013;BME280;22580;57.670;12.006;2023-02-03T00:13:25;101100.44;;;6.93;87.79
13013;BME280;22580;57.670;12.006;2023-02-03T00:15:52;101104.25;;;7.05;87.59
13013;BME280;22580;57.670;12.006;2023-02-03T00:18:21;101093.41;;;6.92;88.29
13013;BME280;22580;57.670;12.006;2023-02-03T00:20:48;101063.31;;;6.74;88.43
13013;BME280;22580;57.670;12.006;2023-02-03T00:23:15;101075.91;;;6.88;88.83
13013;BME280;22580;57.670;12.006;2023-02-03T00:25:42;101000.88;;;6.48;89.29
13013;BME280;22580;57.670;12.006;2023-02-03T00:28:09;101087.00;;;6.79;89.82
13013;BME280;22580;57.670;12.006;2023-02-03T00:30:36;101007.75;;;6.70;88.85
13013;BME280;22580;57.670;12.006;2023-02-03T00:33:03;100974.22;;;6.50;89.44
13013;BME280;22580;57.670;12.006;2023-02-03T00:35:32;101072.91;;;6.94;89.88
13013;BME280;22580;57.670;12.006;2023-02-03T00:37:59;101035.47;;;6.64;90.48
13013;BME280;22580;57.670;12.006;2023-02-03T00:40:29;101056.81;;;6.97;90.38
13013;BME280;22580;57.670;12.006;2023-02-03T00:42:56;101056.25;;;7.08;90.38
13013;BME280;22580;57.670;12.006;2023-02-03T00:45:23;100954.00;;;6.47;90.23
13013;BME280;22580;57.670;12.006;2023-02-03T00:47:53;101019.16;;;6.72;92.34
13013;BME280;22580;57.670;12.006;2023-02-03T00:50:20;101011.66;;;6.63;92.99
13013;BME280;22580;57.670;12.006;2023-02-03T00:52:48;101009.00;;;6.63;93.55
13013;BME280;22580;57.670;12.006;2023-02-03T00:55:15;100968.53;;;6.57;93.71
13013;BME280;22580;57.670;12.006;2023-02-03T00:57:42;100994.94;;;6.78;94.78
13013;BME280;22580;57.670;12.006;2023-02-03T01:00:10;100980.63;;;6.80;94.79
13013;BME280;22580;57.670;12.006;2023-02-03T01:02:37;100970.00;;;6.80;96.31
13013;BME280;22580;57.670;12.006;2023-02-03T01:05:04;100962.34;;;6.57;97.13
13013;BME280;22580;57.670;12.006;2023-02-03T01:07:32;100950.47;;;6.64;97.36
13013;BME280;22580;57.670;12.006;2023-02-03T01:10:02;100921.19;;;6.66;96.92
13013;BME280;22580;57.670;12.006;2023-02-03T01:12:29;100866.06;;;6.36;96.95
13013;BME280;22580;57.670;12.006;2023-02-03T01:14:56;100924.31;;;6.74;97.48
13013;BME280;22580;57.670;12.006;2023-02-03T01:17:26;100907.28;;;6.61;99.13
13013;BME280;22580;57.670;12.006;2023-02-03T01:19:54;100843.81;;;6.21;99.54
13013;BME280;22580;57.670;12.006;2023-02-03T01:22:21;100844.53;;;6.25;100.00
13013;BME280;22580;57.670;12.006;2023-02-03T01:24:47;100857.47;;;6.31;100.00
13013;BME280;22580;57.670;12.006;2023-02-03T01:27:16;100800.94;;;5.96;100.00
13013;BME280;22580;57.670;12.006;2023-02-03T01:29:43;100867.56;;;6.24;100.00
13013;BME280;22580;57.670;12.006;2023-02-03T01:32:10;100861.75;;;6.51;100.00
13013;BME280;22580;57.670;12.006;2023-02-03T01:34:37;100827.03;;;6.38;100.00
13013;BME280;22580;57.670;12.006;2023-02-03T01:37:04;100777.94;;;6.12;100.00
13013;BME280;22580;57.670;12.006;2023-02-03T01:39:37;100655.81;;;5.64;100.00
13013;BME280;22580;57.670;12.006;2023-02-03T01:42:04;100807.31;;;6.60;100.00
13013;BME280;22580;57.670;12.006;2023-02-03T01:44:42;100711.69;;;6.11;100.00
13013;BME280;22580;57.670;12.006;2023-02-03T01:47:20;100792.38;;;6.57;100.00
13013;BME280;22580;57.670;12.006;2023-02-03T01:49:52;100803.69;;;6.61;100.00
13013;BME280;22580;57.670;12.006;2023-02-03T01:52:20;100788.28;;;6.67;100.00
13013;BME280;22580;57.670;12.006;2023-02-03T01:54:49;100752.47;;;6.25;100.00
13013;BME280;22580;57.670;12.006;2023-02-03T01:57:21;100594.00;;;5.28;100.00
13013;BME280;22580;57.670;12.006;2023-02-03T01:59:53;100688.72;;;5.94;100.00
13013;BME280;22580;57.670;12.006;2023-02-03T02:02:22;100702.94;;;6.09;100.00
13013;BME280;22580;57.670;12.006;2023-02-03T02:04:54;100662.38;;;6.07;100.00
13013;BME280;22580;57.670;12.006;2023-02-03T02:07:23;100699.50;;;6.40;100.00
13013;BME280;22580;57.670;12.006;2023-02-03T02:09:50;100714.50;;;6.41;100.00
13013;BME280;22580;57.670;12.006;2023-02-03T02:12:17;100712.97;;;6.68;100.00
13013;BME280;22580;57.670;12.006;2023-02-03T02:14:45;100678.59;;;6.34;100.00
13013;BME280;22580;57.670;12.006;2023-02-03T02:17:28;100606.22;;;5.99;100.00
13013;BME280;22580;57.670;12.006;2023-02-03T02:20:23;100671.16;;;6.40;100.00
13013;BME280;22580;57.670;12.006;2023-02-03T02:29:25;100640.19;;;6.08;100.00
13013;BME280;22580;57.670;12.006;2023-02-03T02:32:05;100611.13;;;6.06;100.00
13013;BME280;22580;57.670;12.006;2023-02-03T02:34:43;100637.91;;;6.33;100.00
13013;BME280;22580;57.670;12.006;2023-02-03T02:37:21;100626.09;;;6.54;100.00
13013;BME280;22580;57.670;12.006;2023-02-03T02:39:56;100615.56;;;6.53;100.00
13013;BME280;22580;57.670;12.006;2023-02-03T02:42:30;100525.63;;;6.01;100.00
13013;BME280;22580;57.670;12.006;2023-02-03T02:45:07;100587.06;;;6.25;100.00
13013;BME280;22580;57.670;12.006;2023-02-03T02:47:37;100591.41;;;6.10;100.00
13013;BME280;22580;57.670;12.006;2023-02-03T02:50:10;100546.22;;;6.12;100.00
13013;BME280;22580;57.670;12.006;2023-02-03T02:52:41;100575.50;;;6.26;100.00
13013;BME280;22580;57.670;12.006;2023-02-03T02:55:13;100452.59;;;5.78;100.00
13013;BME280;22580;57.670;12.006;2023-02-03T02:57:42;100548.19;;;6.24;100.00
13013;BME280;22580;57.670;12.006;2023-02-03T03:00:11;100531.16;;;5.97;100.00
13013;BME280;22580;57.670;12.006;2023-02-03T03:02:40;100526.59;;;6.30;100.00
13013;BME280;22580;57.670;12.006;2023-02-03T03:05:09;100461.44;;;5.95;100.00
13013;BME280;22580;57.670;12.006;2023-02-03T03:07:41;100483.88;;;6.19;100.00
13013;BME280;22580;57.670;12.006;2023-02-03T03:10:12;100481.63;;;6.43;100.00
13013;BME280;22580;57.670;12.006;2023-02-03T03:12:45;100455.69;;;6.32;100.00
13013;BME280;22580;57.670;12.006;2023-02-03T03:15:19;100465.66;;;6.58;100.00
13013;BME280;22580;57.670;12.006;2023-02-03T03:17:53;100452.72;;;6.22;100.00
13013;BME280;22580;57.670;12.006;2023-02-03T03:20:24;100451.47;;;6.44;100.00
13013;BME280;22580;57.670;12.006;2023-02-03T03:22:55;100416.59;;;6.20;100.00
13013;BME280;22580;57.670;12.006;2023-02-03T03:25:29;100398.03;;;6.20;100.00
13013;BME280;22580;57.670;12.006;2023-02-03T03:28:00;100405.44;;;6.59;100.00
13013;BME280;22580;57.670;12.006;2023-02-03T03:30:32;100391.09;;;6.47;100.00
13013;BME280;22580;57.670;12.006;2023-02-03T03:33:02;100321.50;;;5.98;100.00
13013;BME280;22580;57.670;12.006;2023-02-03T03:35:35;100255.34;;;5.65;100.00
13013;BME280;22580;57.670;12.006;2023-02-03T03:38:08;100371.75;;;6.45;100.00
13013;BME280;22580;57.670;12.006;2023-02-03T03:40:38;100367.97;;;6.19;100.00
13013;BME280;22580;57.670;12.006;2023-02-03T03:43:13;100339.69;;;6.48;100.00
13013;BME280;22580;57.670;12.006;2023-02-03T03:45:45;100316.06;;;6.30;100.00
13013;BME280;22580;57.670;12.006;2023-02-03T03:48:18;100284.66;;;6.22;100.00
13013;BME280;22580;57.670;12.006;2023-02-03T03:50:52;100191.75;;;5.79;100.00
13013;BME280;22580;57.670;12.006;2023-02-03T03:53:22;100299.69;;;6.66;100.00
13013;BME280;22580;57.670;12.006;2023-02-03T03:55:50;100155.72;;;6.05;100.00
13013;BME280;22580;57.670;12.006;2023-02-03T03:58:21;100307.28;;;6.72;100.00
13013;BME280;22580;57.670;12.006;2023-02-03T04:00:54;100257.09;;;6.53;100.00
13013;BME280;22580;57.670;12.006;2023-02-03T04:03:26;100262.78;;;6.47;100.00
13013;BME280;22580;57.670;12.006;2023-02-03T04:05:54;100238.22;;;6.43;100.00
13013;BME280;22580;57.670;12.006;2023-02-03T04:08:24;100206.66;;;6.24;100.00
13013;BME280;22580;57.670;12.006;2023-02-03T04:10:51;100199.56;;;6.39;100.00
13013;BME280;22580;57.670;12.006;2023-02-03T04:13:21;100143.53;;;6.15;100.00
13013;BME280;22580;57.670;12.006;2023-02-03T04:15:48;100156.31;;;6.37;100.00
13013;BME280;22580;57.670;12.006;2023-02-03T04:18:15;100202.50;;;6.49;100.00
13013;BME280;22580;57.670;12.006;2023-02-03T04:20:44;100044.47;;;5.74;100.00
13013;BME280;22580;57.670;12.006;2023-02-03T04:23:10;100170.72;;;6.62;100.00
13013;BME280;22580;57.670;12.006;2023-02-03T04:25:37;100170.31;;;6.68;100.00
13013;BME280;22580;57.670;12.006;2023-02-03T04:28:07;100138.25;;;6.71;100.00
13013;BME280;22580;57.670;12.006;2023-02-03T04:30:39;100143.06;;;6.78;100.00
13013;BME280;22580;57.670;12.006;2023-02-03T04:33:06;100115.38;;;6.41;100.00
13013;BME280;22580;57.670;12.006;2023-02-03T04:35:33;100122.22;;;6.31;100.00
13013;BME280;22580;57.670;12.006;2023-02-03T04:38:01;100082.97;;;6.22;100.00
13013;BME280;22580;57.670;12.006;2023-02-03T04:40:28;100070.84;;;6.18;100.00
13013;BME280;22580;57.670;12.006;2023-02-03T04:42:55;100091.97;;;6.34;100.00
13013;BME280;22580;57.670;12.006;2023-02-03T04:45:24;100089.59;;;6.29;100.00
13013;BME280;22580;57.670;12.006;2023-02-03T04:47:53;100059.97;;;6.08;100.00
13013;BME280;22580;57.670;12.006;2023-02-03T04:50:21;100070.41;;;6.52;100.00
13013;BME280;22580;57.670;12.006;2023-02-03T04:52:48;99981.59;;;5.90;100.00
13013;BME280;22580;57.670;12.006;2023-02-03T04:55:16;100048.84;;;6.57;100.00
13013;BME280;22580;57.670;12.006;2023-02-03T04:57:43;100047.34;;;6.53;100.00
13013;BME280;22580;57.670;12.006;2023-02-03T05:00:11;99955.31;;;6.00;100.00
13013;BME280;22580;57.670;12.006;2023-02-03T05:02:38;100040.78;;;6.58;100.00
13013;BME280;22580;57.670;12.006;2023-02-03T05:05:06;99997.81;;;6.39;100.00
13013;BME280;22580;57.670;12.006;2023-02-03T05:07:33;100027.81;;;6.54;100.00
13013;BME280;22580;57.670;12.006;2023-02-03T05:10:00;100017.09;;;6.55;100.00
13013;BME280;22580;57.670;12.006;2023-02-03T05:12:28;99963.19;;;5.87;100.00
13013;BME280;22580;57.670;12.006;2023-02-03T05:14:55;100003.81;;;6.29;100.00
13013;BME280;22580;57.670;12.006;2023-02-03T05:17:22;99972.97;;;6.13;100.00
13013;BME280;22580;57.670;12.006;2023-02-03T05:19:49;99911.06;;;5.59;100.00
13013;BME280;22580;57.670;12.006;2023-02-03T05:22:16;99974.81;;;6.25;100.00
13013;BME280;22580;57.670;12.006;2023-02-03T05:24:43;99972.44;;;6.35;100.00
13013;BME280;22580;57.670;12.006;2023-02-03T05:27:10;99955.78;;;6.46;100.00
13013;BME280;22580;57.670;12.006;2023-02-03T05:29:39;99961.25;;;6.30;100.00
13013;BME280;22580;57.670;12.006;2023-02-03T05:32:06;99904.94;;;5.85;100.00
13013;BME280;22580;57.670;12.006;2023-02-03T05:34:32;99867.25;;;5.80;100.00
13013;BME280;22580;57.670;12.006;2023-02-03T05:36:59;99932.28;;;6.27;100.00
13013;BME280;22580;57.670;12.006;2023-02-03T05:39:28;99908.88;;;6.59;100.00
13013;BME280;22580;57.670;12.006;2023-02-03T05:41:55;99806.16;;;5.82;100.00
13013;BME280;22580;57.670;12.006;2023-02-03T05:44:22;99840.22;;;6.15;100.00
13013;BME280;22580;57.670;12.006;2023-02-03T05:46:51;99891.94;;;6.35;100.00
13013;BME280;22580;57.670;12.006;2023-02-03T05:49:19;99867.34;;;6.45;100.00
13013;BME280;22580;57.670;12.006;2023-02-03T05:51:48;99860.97;;;6.61;100.00
13013;BME280;22580;57.670;12.006;2023-02-03T05:54:15;99807.44;;;6.29;100.00
13013;BME280;22580;57.670;12.006;2023-02-03T05:56:42;99804.38;;;6.35;100.00
13013;BME280;22580;57.670;12.006;2023-02-03T05:59:09;99803.94;;;6.53;100.00
13013;BME280;22580;57.670;12.006;2023-02-03T06:01:36;99796.06;;;6.14;100.00
13013;BME280;22580;57.670;12.006;2023-02-03T06:04:05;99814.47;;;6.55;100.00
13013;BME280;22580;57.670;12.006;2023-02-03T06:06:32;99813.59;;;6.29;100.00
13013;BME280;22580;57.670;12.006;2023-02-03T06:09:00;99805.75;;;6.66;100.00
13013;BME280;22580;57.670;12.006;2023-02-03T06:11:27;99777.94;;;6.46;100.00
13013;BME280;22580;57.670;12.006;2023-02-03T06:13:54;99802.47;;;6.62;100.00
13013;BME280;22580;57.670;12.006;2023-02-03T06:16:23;99734.19;;;6.26;100.00
13013;BME280;22580;57.670;12.006;2023-02-03T06:18:50;99771.34;;;6.64;100.00
13013;BME280;22580;57.670;12.006;2023-02-03T06:21:19;99782.91;;;6.76;100.00
13013;BME280;22580;57.670;12.006;2023-02-03T06:23:47;99714.44;;;6.55;100.00
13013;BME280;22580;57.670;12.006;2023-02-03T06:26:14;99745.97;;;6.35;100.00
13013;BME280;22580;57.670;12.006;2023-02-03T06:28:41;99734.94;;;6.15;100.00
13013;BME280;22580;57.670;12.006;2023-02-03T06:31:08;99753.50;;;6.41;100.00
13013;BME280;22580;57.670;12.006;2023-02-03T06:33:35;99751.81;;;6.40;100.00
13013;BME280;22580;57.670;12.006;2023-02-03T06:36:02;99675.59;;;5.78;100.00
13013;BME280;22580;57.670;12.006;2023-02-03T06:38:30;99738.09;;;6.58;100.00
13013;BME280;22580;57.670;12.006;2023-02-03T06:40:57;99705.97;;;6.25;100.00
13013;BME280;22580;57.670;12.006;2023-02-03T06:43:24;99721.00;;;6.63;100.00
13013;BME280;22580;57.670;12.006;2023-02-03T06:45:51;99708.28;;;6.30;100.00
13013;BME280;22580;57.670;12.006;2023-02-03T06:48:18;99714.66;;;6.52;100.00
13013;BME280;22580;57.670;12.006;2023-02-03T06:50:45;99702.66;;;6.34;100.00
13013;BME280;22580;57.670;12.006;2023-02-03T06:53:12;99709.56;;;6.37;100.00
13013;BME280;22580;57.670;12.006;2023-02-03T06:55:40;99702.19;;;6.66;100.00
13013;BME280;22580;57.670;12.006;2023-02-03T06:58:07;99683.34;;;6.45;100.00
13013;BME280;22580;57.670;12.006;2023-02-03T07:00:34;99682.94;;;6.75;100.00
13013;BME280;22580;57.670;12.006;2023-02-03T07:03:01;99673.28;;;6.74;100.00
13013;BME280;22580;57.670;12.006;2023-02-03T07:05:29;99673.34;;;6.85;100.00
13013;BME280;22580;57.670;12.006;2023-02-03T07:07:59;99687.56;;;6.47;100.00
13013;BME280;22580;57.670;12.006;2023-02-03T07:10:26;99696.63;;;6.81;100.00
13013;BME280;22580;57.670;12.006;2023-02-03T07:13:01;99692.44;;;6.66;100.00
13013;BME280;22580;57.670;12.006;2023-02-03T07:15:28;99695.91;;;6.79;100.00
13013;BME280;22580;57.670;12.006;2023-02-03T07:17:55;99690.03;;;6.87;100.00
13013;BME280;22580;57.670;12.006;2023-02-03T07:20:22;99670.69;;;6.85;100.00
13013;BME280;22580;57.670;12.006;2023-02-03T07:22:53;99693.13;;;7.05;100.00
13013;BME280;22580;57.670;12.006;2023-02-03T07:25:21;99693.13;;;6.81;100.00
13013;BME280;22580;57.670;12.006;2023-02-03T07:27:48;99643.22;;;6.73;100.00
13013;BME280;22580;57.670;12.006;2023-02-03T07:30:16;99631.78;;;6.60;100.00
13013;BME280;22580;57.670;12.006;2023-02-03T07:32:46;99685.44;;;7.13;100.00
13013;BME280;22580;57.670;12.006;2023-02-03T07:35:14;99692.41;;;7.03;100.00
13013;BME280;22580;57.670;12.006;2023-02-03T07:37:41;99677.34;;;7.14;100.00
13013;BME280;22580;57.670;12.006;2023-02-03T07:40:09;99645.41;;;7.03;100.00
13013;BME280;22580;57.670;12.006;2023-02-03T07:42:39;99697.59;;;7.28;100.00
13013;BME280;22580;57.670;12.006;2023-02-03T07:45:07;99694.16;;;7.39;100.00
13013;BME280;22580;57.670;12.006;2023-02-03T07:47:36;99680.13;;;7.37;100.00
13013;BME280;22580;57.670;12.006;2023-02-03T07:50:03;99677.75;;;7.45;100.00
13013;BME280;22580;57.670;12.006;2023-02-03T07:52:32;99708.44;;;7.49;100.00
13013;BME280;22580;57.670;12.006;2023-02-03T07:54:59;99714.69;;;7.37;100.00
13013;BME280;22580;57.670;12.006;2023-02-03T07:57:26;99676.16;;;7.18;100.00
13013;BME280;22580;57.670;12.006;2023-02-03T07:59:53;99698.91;;;7.22;100.00
13013;BME280;22580;57.670;12.006;2023-02-03T08:02:20;99689.28;;;7.33;100.00
13013;BME280;22580;57.670;12.006;2023-02-03T08:04:49;99666.63;;;6.92;100.00
13013;BME280;22580;57.670;12.006;2023-02-03T08:07:16;99708.34;;;7.27;100.00
13013;BME280;22580;57.670;12.006;2023-02-03T08:09:43;99715.94;;;7.20;100.00
13013;BME280;22580;57.670;12.006;2023-02-03T08:12:10;99720.00;;;7.13;100.00
13013;BME280;22580;57.670;12.006;2023-02-03T08:14:36;99696.97;;;6.77;100.00
13013;BME280;22580;57.670;12.006;2023-02-03T08:17:03;99705.91;;;6.76;100.00
13013;BME280;22580;57.670;12.006;2023-02-03T08:19:30;99733.59;;;6.84;100.00
13013;BME280;22580;57.670;12.006;2023-02-03T08:21:58;99736.50;;;7.05;100.00
13013;BME280;22580;57.670;12.006;2023-02-03T08:24:26;99698.66;;;6.78;100.00
13013;BME280;22580;57.670;12.006;2023-02-03T08:26:53;99729.06;;;6.74;100.00
13013;BME280;22580;57.670;12.006;2023-02-03T08:29:20;99725.78;;;6.94;100.00
13013;BME280;22580;57.670;12.006;2023-02-03T08:31:47;99737.88;;;6.98;100.00
13013;BME280;22580;57.670;12.006;2023-02-03T08:34:14;99688.72;;;6.56;100.00
13013;BME280;22580;57.670;12.006;2023-02-03T08:36:41;99772.41;;;6.74;100.00
13013;BME280;22580;57.670;12.006;2023-02-03T08:39:10;99768.75;;;6.88;100.00
13013;BME280;22580;57.670;12.006;2023-02-03T08:41:37;99779.19;;;7.15;100.00
13013;BME280;22580;57.670;12.006;2023-02-03T08:44:04;99792.94;;;6.96;100.00
13013;BME280;22580;57.670;12.006;2023-02-03T08:46:31;99699.91;;;6.36;100.00
13013;BME280;22580;57.670;12.006;2023-02-03T08:48:59;99709.03;;;6.44;100.00
13013;BME280;22580;57.670;12.006;2023-02-03T08:51:28;99811.53;;;7.09;100.00
13013;BME280;22580;57.670;12.006;2023-02-03T08:53:55;99825.03;;;7.06;100.00
13013;BME280;22580;57.670;12.006;2023-02-03T08:56:24;99718.59;;;6.47;100.00
13013;BME280;22580;57.670;12.006;2023-02-03T08:58:52;99837.53;;;7.29;100.00
13013;BME280;22580;57.670;12.006;2023-02-03T09:01:20;99848.13;;;7.42;100.00
13013;BME280;22580;57.670;12.006;2023-02-03T09:03:47;99859.44;;;7.20;100.00
13013;BME280;22580;57.670;12.006;2023-02-03T09:06:14;99863.22;;;7.41;100.00
13013;BME280;22580;57.670;12.006;2023-02-03T09:08:41;99803.84;;;6.68;100.00
13013;BME280;22580;57.670;12.006;2023-02-03T09:11:09;99876.88;;;7.24;100.00
13013;BME280;22580;57.670;12.006;2023-02-03T09:13:38;99877.72;;;7.24;100.00
13013;BME280;22580;57.670;12.006;2023-02-03T09:16:08;99880.66;;;6.83;100.00
13013;BME280;22580;57.670;12.006;2023-02-03T09:18:35;99908.03;;;6.71;100.00
13013;BME280;22580;57.670;12.006;2023-02-03T09:21:03;99795.25;;;6.51;100.00
13013;BME280;22580;57.670;12.006;2023-02-03T09:23:30;99859.06;;;6.63;100.00
13013;BME280;22580;57.670;12.006;2023-02-03T09:26:00;99932.16;;;7.32;100.00
13013;BME280;22580;57.670;12.006;2023-02-03T09:28:27;99937.03;;;7.25;100.00
13013;BME280;22580;57.670;12.006;2023-02-03T09:30:59;99949.69;;;7.09;100.00
13013;BME280;22580;57.670;12.006;2023-02-03T09:33:26;99959.03;;;6.64;100.00
13013;BME280;22580;57.670;12.006;2023-02-03T09:35:54;99969.16;;;7.22;100.00
13013;BME280;22580;57.670;12.006;2023-02-03T09:38:22;99946.41;;;7.31;100.00
13013;BME280;22580;57.670;12.006;2023-02-03T09:40:53;99985.63;;;7.89;100.00
13013;BME280;22580;57.670;12.006;2023-02-03T09:43:30;99965.34;;;8.12;100.00
13013;BME280;22580;57.670;12.006;2023-02-03T09:46:06;99953.41;;;7.81;100.00
13013;BME280;22580;57.670;12.006;2023-02-03T09:48:42;100002.19;;;8.05;100.00
13013;BME280;22580;57.670;12.006;2023-02-03T09:51:17;99997.38;;;8.47;100.00
13013;BME280;22580;57.670;12.006;2023-02-03T09:53:49;100023.63;;;8.40;100.00
13013;BME280;22580;57.670;12.006;2023-02-03T09:56:29;100046.59;;;8.05;100.00
13013;BME280;22580;57.670;12.006;2023-02-03T09:58:57;100066.63;;;7.98;100.00
13013;BME280;22580;57.670;12.006;2023-02-03T10:01:30;100073.31;;;8.03;100.00
13013;BME280;22580;57.670;12.006;2023-02-03T10:04:03;100090.28;;;7.77;100.00
13013;BME280;22580;57.670;12.006;2023-02-03T10:06:36;100082.63;;;7.72;100.00
13013;BME280;22580;57.670;12.006;2023-02-03T10:09:15;100058.28;;;7.53;100.00
13013;BME280;22580;57.670;12.006;2023-02-03T10:12:11;100127.38;;;8.16;100.00
13013;BME280;22580;57.670;12.006;2023-02-03T10:14:55;100092.25;;;8.11;100.00
13013;BME280;22580;57.670;12.006;2023-02-03T10:17:33;100110.06;;;7.85;100.00
13013;BME280;22580;57.670;12.006;2023-02-03T10:20:09;100150.81;;;8.24;100.00
13013;BME280;22580;57.670;12.006;2023-02-03T10:22:42;100148.03;;;8.51;100.00
13013;BME280;22580;57.670;12.006;2023-02-03T10:25:18;100153.38;;;8.38;100.00
13013;BME280;22580;57.670;12.006;2023-02-03T10:27:50;100177.56;;;8.72;100.00
13013;BME280;22580;57.670;12.006;2023-02-03T10:30:21;100159.94;;;8.82;100.00
13013;BME280;22580;57.670;12.006;2023-02-03T10:32:50;100140.78;;;8.77;100.00
13013;BME280;22580;57.670;12.006;2023-02-03T10:35:20;100195.88;;;8.76;100.00
13013;BME280;22580;57.670;12.006;2023-02-03T10:37:53;100194.25;;;8.63;100.00
13013;BME280;22580;57.670;12.006;2023-02-03T10:40:25;100180.53;;;8.80;100.00
13013;BME280;22580;57.670;12.006;2023-02-03T10:42:54;100186.09;;;9.25;100.00
13013;BME280;22580;57.670;12.006;2023-02-03T10:45:39;100196.94;;;8.74;100.00
13013;BME280;22580;57.670;12.006;2023-02-03T10:48:14;100196.84;;;8.39;100.00
13013;BME280;22580;57.670;12.006;2023-02-03T10:50:44;100215.47;;;8.39;100.00
13013;BME280;22580;57.670;12.006;2023-02-03T10:53:21;100204.16;;;8.22;100.00
13013;BME280;22580;57.670;12.006;2023-02-03T10:55:50;100219.16;;;7.85;100.00
13013;BME280;22580;57.670;12.006;2023-02-03T10:58:21;100269.88;;;7.30;100.00
13013;BME280;22580;57.670;12.006;2023-02-03T11:00:54;100260.38;;;7.53;100.00
13013;BME280;22580;57.670;12.006;2023-02-03T11:03:25;100241.63;;;7.42;100.00
13013;BME280;22580;57.670;12.006;2023-02-03T11:06:05;100278.50;;;7.34;100.00
13013;BME280;22580;57.670;12.006;2023-02-03T11:08:33;100205.91;;;7.46;100.00
13013;BME280;22580;57.670;12.006;2023-02-03T11:11:02;100292.44;;;7.64;100.00
13013;BME280;22580;57.670;12.006;2023-02-03T11:13:30;100250.66;;;7.79;100.00
13013;BME280;22580;57.670;12.006;2023-02-03T11:15:59;100281.91;;;7.63;100.00
13013;BME280;22580;57.670;12.006;2023-02-03T11:18:40;100310.75;;;7.42;100.00
13013;BME280;22580;57.670;12.006;2023-02-03T11:21:09;100311.97;;;7.77;100.00
13013;BME280;22580;57.670;12.006;2023-02-03T11:23:44;100317.22;;;7.65;100.00
13013;BME280;22580;57.670;12.006;2023-02-03T11:26:16;100331.63;;;7.75;100.00
13013;BME280;22580;57.670;12.006;2023-02-03T11:28:46;100296.66;;;7.54;100.00
13013;BME280;22580;57.670;12.006;2023-02-03T11:31:17;100370.72;;;7.87;100.00
13013;BME280;22580;57.670;12.006;2023-02-03T11:33:49;100363.94;;;7.96;100.00
13013;BME280;22580;57.670;12.006;2023-02-03T11:36:17;100358.47;;;8.24;100.00
13013;BME280;22580;57.670;12.006;2023-02-03T11:38:44;100372.19;;;7.78;100.00
13013;BME280;22580;57.670;12.006;2023-02-03T11:41:16;100411.13;;;7.52;100.00
13013;BME280;22580;57.670;12.006;2023-02-03T11:43:43;100435.72;;;7.13;100.00
13013;BME280;22580;57.670;12.006;2023-02-03T11:46:11;100395.22;;;7.65;100.00
13013;BME280;22580;57.670;12.006;2023-02-03T11:48:43;100440.91;;;8.26;100.00
13013;BME280;22580;57.670;12.006;2023-02-03T11:51:20;100440.75;;;7.87;100.00
13013;BME280;22580;57.670;12.006;2023-02-03T11:54:01;100465.63;;;8.28;100.00
13013;BME280;22580;57.670;12.006;2023-02-03T11:56:33;100436.94;;;7.92;100.00
13013;BME280;22580;57.670;12.006;2023-02-03T11:59:33;100438.09;;;7.61;100.00
13013;BME280;22580;57.670;12.006;2023-02-03T12:05:05;100479.53;;;7.92;100.00
13013;BME280;22580;57.670;12.006;2023-02-03T12:07:50;100485.56;;;8.08;100.00
13013;BME280;22580;57.670;12.006;2023-02-03T12:10:38;100427.75;;;7.56;100.00
13013;BME280;22580;57.670;12.006;2023-02-03T12:13:23;100476.94;;;7.49;100.00
13013;BME280;22580;57.670;12.006;2023-02-03T12:16:07;100520.97;;;7.96;100.00
13013;BME280;22580;57.670;12.006;2023-02-03T12:18:51;100525.81;;;7.89;100.00
13013;BME280;22580;57.670;12.006;2023-02-03T12:21:41;100505.75;;;7.83;100.00
13013;BME280;22580;57.670;12.006;2023-02-03T12:24:18;100567.72;;;8.00;100.00
13013;BME280;22580;57.670;12.006;2023-02-03T12:26:55;100570.88;;;7.92;100.00
13013;BME280;22580;57.670;12.006;2023-02-03T12:29:29;100587.56;;;8.37;100.00
13013;BME280;22580;57.670;12.006;2023-02-03T12:32:08;100586.59;;;8.23;100.00
13013;BME280;22580;57.670;12.006;2023-02-03T12:34:40;100545.72;;;8.25;100.00
13013;BME280;22580;57.670;12.006;2023-02-03T12:37:16;100596.09;;;8.69;100.00
13013;BME280;22580;57.670;12.006;2023-02-03T12:39:49;100615.63;;;8.14;100.00
13013;BME280;22580;57.670;12.006;2023-02-03T12:42:20;100610.22;;;7.87;100.00
13013;BME280;22580;57.670;12.006;2023-02-03T12:44:52;100548.63;;;7.22;100.00
13013;BME280;22580;57.670;12.006;2023-02-03T12:47:28;100633.03;;;7.63;100.00
13013;BME280;22580;57.670;12.006;2023-02-03T12:50:01;100642.25;;;7.71;100.00
13013;BME280;22580;57.670;12.006;2023-02-03T12:52:35;100601.78;;;7.66;100.00
13013;BME280;22580;57.670;12.006;2023-02-03T12:55:22;100650.09;;;7.14;100.00
13013;BME280;22580;57.670;12.006;2023-02-03T12:57:58;100658.34;;;7.40;100.00
13013;BME280;22580;57.670;12.006;2023-02-03T13:03:20;100687.63;;;7.24;100.00
13013;BME280;22580;57.670;12.006;2023-02-03T13:05:54;100706.16;;;7.26;100.00
13013;BME280;22580;57.670;12.006;2023-02-03T13:08:29;100699.19;;;7.23;100.00
13013;BME280;22580;57.670;12.006;2023-02-03T13:11:05;100711.13;;;7.62;100.00
13013;BME280;22580;57.670;12.006;2023-02-03T13:13:41;100687.75;;;7.67;100.00